Time;durP1;ratioP1;P1;durP2;ratioP2;P2;SDS_P1;SDS_P2;PMS_P1;PMS_P2;Temp;Humidity;BMP_temperature;BMP_pressure;BME280_temperature;BME280_humidity;BME280_pressure;Samples;Min_cycle;Max_cycle;Signal;HPM_P1;HPM_P2
2022/09/18 00:01:11;;;;;;;8.25;1.00;;;9.70;99.90;;;;;;5051927;28;20045;-83
2022/09/18 00:03:39;;;;;;;4.20;1.08;;;9.70;99.90;;;;;;5052268;28;20045;-83
2022/09/18 00:06:12;;;;;;;2.00;0.57;;;9.70;99.90;;;;;;5052004;28;20040;-82
2022/09/18 00:08:39;;;;;;;2.88;0.70;;;9.60;99.90;;;;;;5069041;28;20047;-83
2022/09/18 00:11:08;;;;;;;3.08;0.65;;;9.60;99.90;;;;;;5035536;28;20048;-81
2022/09/18 00:13:35;;;;;;;6.13;1.08;;;9.60;99.90;;;;;;5051670;28;20493;-82
2022/09/18 00:16:03;;;;;;;5.40;0.98;;;9.70;99.90;;;;;;5052057;28;20034;-82
2022/09/18 00:18:30;;;;;;;3.67;0.73;;;9.70;99.90;;;;;;5068330;28;20037;-83
2022/09/18 00:21:14;;;;;;;4.28;0.85;;;9.70;99.90;;;;;;5085179;28;20133;-82
2022/09/18 00:23:41;;;;;;;10.23;1.27;;;9.70;99.90;;;;;;5068085;28;20060;-83
2022/09/18 00:26:08;;;;;;;5.13;1.15;;;9.70;99.90;;;;;;5035211;28;20049;-82
2022/09/18 00:28:36;;;;;;;5.45;0.70;;;9.70;99.90;;;;;;5068021;28;20132;-82
2022/09/18 00:31:08;;;;;;;5.63;1.05;;;9.70;99.90;;;;;;5051976;28;20072;-82
2022/09/18 00:33:36;;;;;;;2.70;0.70;;;9.70;99.90;;;;;;5067999;28;20482;-82
2022/09/18 00:36:05;;;;;;;4.13;0.88;;;9.80;99.90;;;;;;5068169;28;20034;-83
2022/09/18 00:38:32;;;;;;;7.18;1.38;;;9.70;99.90;;;;;;5067383;28;20048;-82
2022/09/18 00:41:01;;;;;;;3.50;0.70;;;9.70;99.90;;;;;;5051108;28;20517;-83
2022/09/18 00:43:30;;;;;;;8.85;1.00;;;9.70;99.90;;;;;;5051202;28;20095;-83
2022/09/18 00:46:21;;;;;;;5.65;0.80;;;9.70;99.90;;;;;;5050965;28;20124;-83
2022/09/18 00:49:14;;;;;;;1.95;0.50;;;9.70;99.90;;;;;;5051167;28;20379;-82
2022/09/18 00:51:44;;;;;;;7.50;0.75;;;9.70;99.90;;;;;;5067385;28;20138;-82
2022/09/18 00:54:20;;;;;;;4.07;0.63;;;9.70;99.90;;;;;;5066754;28;20065;-82
2022/09/18 00:56:49;;;;;;;4.47;0.60;;;9.70;99.90;;;;;;5051172;28;20042;-82
2022/09/18 00:59:23;;;;;;;4.05;0.50;;;9.80;99.90;;;;;;5051015;28;20041;-82
2022/09/18 01:01:49;;;;;;;7.38;0.80;;;9.80;99.90;;;;;;5083940;28;20037;-83
2022/09/18 01:04:16;;;;;;;4.32;0.70;;;9.80;99.90;;;;;;5034469;28;20045;-83
2022/09/18 01:07:07;;;;;;;6.07;0.85;;;9.90;99.90;;;;;;5034643;28;20080;-83
2022/09/18 01:10:12;;;;;;;3.22;0.65;;;9.80;99.90;;;;;;5050662;28;20050;-82
2022/09/18 01:12:53;;;;;;;5.82;0.70;;;9.80;99.90;;;;;;5050502;28;20080;-82
2022/09/18 01:15:49;;;;;;;6.03;0.80;;;9.80;99.90;;;;;;5083598;28;20420;-82
2022/09/18 01:18:25;;;;;;;7.28;1.08;;;9.80;99.90;;;;;;5050647;28;20047;-82
2022/09/18 01:21:12;;;;;;;6.03;1.00;;;9.80;99.90;;;;;;5050715;28;20048;-82
2022/09/18 01:24:05;;;;;;;5.03;0.80;;;9.80;99.90;;;;;;5050224;28;20041;-82
2022/09/18 01:26:53;;;;;;;7.53;0.98;;;9.80;99.90;;;;;;5050195;28;20045;-82
2022/09/18 01:29:38;;;;;;;5.13;0.68;;;9.80;99.90;;;;;;5050160;28;20498;-83
2022/09/18 01:32:17;;;;;;;2.97;0.82;;;9.80;99.90;;;;;;5050160;28;20038;-82
2022/09/18 01:34:52;;;;;;;3.90;0.77;;;9.90;99.90;;;;;;5050239;28;20128;-82
2022/09/18 01:37:45;;;;;;;3.03;0.60;;;9.90;99.90;;;;;;5049554;28;20049;-82
2022/09/18 01:40:26;;;;;;;5.72;0.90;;;9.90;99.90;;;;;;5083330;28;20042;-82
2022/09/18 01:42:57;;;;;;;4.03;1.15;;;9.90;99.90;;;;;;5050265;28;20041;-82
2022/09/18 01:45:29;;;;;;;3.22;0.80;;;9.80;99.90;;;;;;5049851;28;20081;-83
2022/09/18 01:48:04;;;;;;;9.75;0.98;;;9.80;99.90;;;;;;5050215;28;20037;-82
2022/09/18 01:50:34;;;;;;;7.13;1.00;;;9.70;99.90;;;;;;5049746;28;20041;-82
2022/09/18 01:53:31;;;;;;;7.63;0.98;;;9.70;99.90;;;;;;5050174;28;20044;-83
2022/09/18 01:56:16;;;;;;;3.25;0.60;;;9.60;99.90;;;;;;5082962;28;20044;-82
2022/09/18 01:58:45;;;;;;;3.65;0.80;;;9.90;99.90;;;;;;5066062;28;20498;-82
2022/09/18 02:01:16;;;;;;;8.02;0.85;;;9.60;99.90;;;;;;5050195;28;20052;-82
2022/09/18 02:03:53;;;;;;;5.05;0.80;;;9.60;99.90;;;;;;5049431;28;20116;-82
2022/09/18 02:06:31;;;;;;;4.72;0.77;;;9.60;99.90;;;;;;5049498;28;20509;-82
2022/09/18 02:08:59;;;;;;;4.20;0.80;;;9.60;99.90;;;;;;5042833;28;20034;-82
2022/09/18 02:11:26;;;;;;;4.30;0.85;;;9.60;99.90;;;;;;5029878;28;20042;-81
2022/09/18 02:14:20;;;;;;;3.40;0.80;;;9.60;99.90;;;;;;5029751;28;20057;-82
2022/09/18 02:17:08;;;;;;;5.63;0.80;;;9.60;99.90;;;;;;5029586;28;20037;-82
2022/09/18 02:19:37;;;;;;;4.07;1.00;;;9.60;99.90;;;;;;5029001;28;20054;-82
2022/09/18 02:22:09;;;;;;;6.28;0.77;;;9.50;99.90;;;;;;5029948;28;20041;-82
2022/09/18 02:24:39;;;;;;;5.18;0.82;;;9.50;99.90;;;;;;5029671;28;20049;-82
2022/09/18 02:27:08;;;;;;;8.55;0.80;;;9.50;99.90;;;;;;5029633;28;20402;-82
2022/09/18 02:29:36;;;;;;;13.65;0.80;;;9.50;99.90;;;;;;5047793;28;20045;-82
2022/09/18 02:32:03;;;;;;;5.88;1.00;;;9.50;99.90;;;;;;5049277;28;20120;-82
2022/09/18 02:34:30;;;;;;;3.17;0.90;;;9.50;99.90;;;;;;5049209;28;20038;-83
2022/09/18 02:37:07;;;;;;;3.05;0.68;;;9.50;99.90;;;;;;5033291;28;20041;-82
2022/09/18 02:39:59;;;;;;;4.47;0.60;;;9.50;99.90;;;;;;5082386;28;20045;-82
2022/09/18 02:42:50;;;;;;;6.47;1.05;;;9.50;99.90;;;;;;5065780;28;20049;-82
2022/09/18 02:45:31;;;;;;;3.67;0.70;;;9.50;99.90;;;;;;5066081;28;20037;-82
2022/09/18 02:48:21;;;;;;;1.50;0.68;;;9.50;99.90;;;;;;5065639;28;20128;-82
2022/09/18 02:50:58;;;;;;;8.90;0.80;;;9.50;99.90;;;;;;5065800;28;20433;-82
2022/09/18 02:53:36;;;;;;;5.57;1.58;;;9.50;99.90;;;;;;5065951;28;20501;-82
2022/09/18 02:56:09;;;;;;;4.10;0.63;;;9.50;99.90;;;;;;5065810;28;20092;-82
2022/09/18 02:58:53;;;;;;;3.25;1.00;;;9.60;99.90;;;;;;5065861;28;20045;-82
2022/09/18 03:01:23;;;;;;;3.83;0.60;;;9.60;99.90;;;;;;5065539;28;20485;-82
2022/09/18 03:03:50;;;;;;;7.38;0.90;;;9.70;99.90;;;;;;5048740;28;20045;-83
2022/09/18 03:06:17;;;;;;;8.65;0.75;;;9.70;99.90;;;;;;5049199;28;20128;-82
2022/09/18 03:08:45;;;;;;;6.07;0.70;;;9.70;99.90;;;;;;5048589;28;20080;-82
2022/09/18 03:11:11;;;;;;;3.65;0.90;;;9.60;99.90;;;;;;5049052;28;20489;-82
2022/09/18 03:13:38;;;;;;;5.35;0.70;;;9.60;99.90;;;;;;5032261;28;20045;-82
2022/09/18 03:16:05;;;;;;;2.92;0.60;;;9.60;99.90;;;;;;5049267;28;20439;-82
2022/09/18 03:18:31;;;;;;;4.95;0.75;;;9.60;99.90;;;;;;5036265;28;20072;-82
2022/09/18 03:20:58;;;;;;;1.42;0.60;;;9.60;99.90;;;;;;5036524;28;20908;-83
2022/09/18 03:23:25;;;;;;;6.97;1.10;;;9.60;99.90;;;;;;5036612;28;20040;-82
2022/09/18 03:25:51;;;;;;;4.88;0.80;;;9.60;99.90;;;;;;5068884;28;20104;-83
2022/09/18 03:28:18;;;;;;;1.55;0.57;;;9.60;99.90;;;;;;5036368;28;20091;-83
2022/09/18 03:30:45;;;;;;;3.90;0.88;;;9.70;99.90;;;;;;5052358;28;20037;-83
2022/09/18 03:33:12;;;;;;;4.22;0.52;;;9.60;99.90;;;;;;5069200;28;20041;-82
2022/09/18 03:35:39;;;;;;;1.63;0.50;;;9.90;99.90;;;;;;5052720;28;20037;-82
2022/09/18 03:38:05;;;;;;;4.93;0.60;;;9.60;99.90;;;;;;5036589;28;20516;-83
2022/09/18 03:40:32;;;;;;;6.43;0.80;;;10.30;99.90;;;;;;5036199;28;20107;-83
2022/09/18 03:42:59;;;;;;;6.63;0.95;;;9.60;99.90;;;;;;5052699;28;20084;-82
2022/09/18 03:45:25;;;;;;;3.53;0.93;;;9.60;99.90;;;;;;5036119;28;20037;-82
2022/09/18 03:47:52;;;;;;;5.72;0.52;;;9.60;99.90;;;;;;5035549;28;20037;-82
2022/09/18 03:50:19;;;;;;;3.17;0.80;;;9.60;99.90;;;;;;5052505;28;20095;-82
2022/09/18 03:52:47;;;;;;;2.67;0.47;;;9.70;99.90;;;;;;5052177;28;20033;-83
2022/09/18 03:55:13;;;;;;;3.90;0.80;;;9.70;99.90;;;;;;5052134;28;20033;-83
2022/09/18 03:57:40;;;;;;;5.65;0.82;;;9.70;99.90;;;;;;5035883;28;20052;-83
2022/09/18 04:00:07;;;;;;;6.60;1.20;;;9.70;99.90;;;;;;5052105;28;20042;-83
2022/09/18 04:02:34;;;;;;;4.57;1.02;;;9.70;99.90;;;;;;5052376;28;20091;-83
2022/09/18 04:05:02;;;;;;;3.17;0.70;;;9.70;99.90;;;;;;5035509;28;20038;-82
2022/09/18 04:07:29;;;;;;;5.93;0.90;;;9.60;99.90;;;;;;5036119;28;20398;-83
2022/09/18 04:09:56;;;;;;;7.47;1.05;;;9.70;99.90;;;;;;5035113;28;20037;-82
2022/09/18 04:12:23;;;;;;;5.30;1.02;;;9.60;99.90;;;;;;5051724;28;20060;-83
2022/09/18 04:14:50;;;;;;;7.93;1.15;;;9.70;99.90;;;;;;5035383;28;20045;-82
2022/09/18 04:17:16;;;;;;;5.45;0.98;;;9.70;99.90;;;;;;5035393;28;20433;-83
2022/09/18 04:19:43;;;;;;;4.75;0.73;;;9.70;99.90;;;;;;5051460;28;20033;-82
2022/09/18 04:22:09;;;;;;;6.38;0.90;;;9.70;99.90;;;;;;5035636;28;20047;-82
2022/09/18 04:24:38;;;;;;;2.88;0.73;;;9.70;99.90;;;;;;5035538;28;20029;-82
2022/09/18 04:27:06;;;;;;;4.55;0.70;;;9.70;99.90;;;;;;5035318;28;20057;-82
2022/09/18 04:29:33;;;;;;;3.85;0.63;;;9.70;99.90;;;;;;5051092;28;20038;-82
2022/09/18 04:32:04;;;;;;;3.13;0.73;;;9.90;99.90;;;;;;5051464;28;20052;-83
2022/09/18 04:34:30;;;;;;;7.00;1.13;;;9.70;99.90;;;;;;5035726;28;20045;-83
2022/09/18 04:36:57;;;;;;;1.65;0.60;;;9.70;99.90;;;;;;5034941;28;20558;-83
2022/09/18 04:39:24;;;;;;;2.92;0.77;;;10.30;99.90;;;;;;5084386;28;20551;-83
2022/09/18 04:41:50;;;;;;;3.90;0.90;;;9.80;99.90;;;;;;5051237;28;20087;-82
2022/09/18 04:44:17;;;;;;;1.77;0.50;;;9.80;99.90;;;;;;5035041;28;20068;-83
2022/09/18 04:46:44;;;;;;;2.20;0.70;;;9.80;99.90;;;;;;5050973;28;20048;-83
2022/09/18 04:49:10;;;;;;;9.20;0.95;;;9.80;99.90;;;;;;5029744;28;20486;-82
2022/09/18 04:51:37;;;;;;;8.88;1.00;;;9.90;99.90;;;;;;5025855;28;20099;-83
2022/09/18 04:54:04;;;;;;;7.90;1.00;;;9.90;99.90;;;;;;5038402;28;20132;-83
2022/09/18 04:56:31;;;;;;;2.00;0.55;;;9.90;99.90;;;;;;5064344;28;20042;-83
2022/09/18 04:58:58;;;;;;;7.38;0.93;;;9.90;99.90;;;;;;5014999;28;20091;-82
2022/09/18 05:01:25;;;;;;;5.82;0.80;;;9.90;99.90;;;;;;5015120;28;20505;-82
2022/09/18 05:03:52;;;;;;;4.40;0.90;;;9.90;99.90;;;;;;5023828;28;20073;-82
2022/09/18 05:06:18;;;;;;;3.75;0.60;;;9.90;99.90;;;;;;5034335;28;20049;-82
2022/09/18 05:08:45;;;;;;;3.53;0.60;;;9.90;99.90;;;;;;5033937;28;20080;-82
2022/09/18 05:11:12;;;;;;;8.85;0.93;;;10.00;99.90;;;;;;5029787;28;20041;-82
2022/09/18 05:13:39;;;;;;;4.68;0.80;;;10.00;99.90;;;;;;5046501;28;20204;-83
2022/09/18 05:16:06;;;;;;;2.03;0.45;;;9.90;99.90;;;;;;5037564;28;20045;-82
2022/09/18 05:18:33;;;;;;;3.40;0.63;;;9.90;99.90;;;;;;5025224;28;20478;-83
2022/09/18 05:21:03;;;;;;;4.57;0.80;;;9.90;99.90;;;;;;5040801;28;20073;-82
2022/09/18 05:23:32;;;;;;;5.30;0.80;;;9.90;99.90;;;;;;5034080;28;20383;-83
2022/09/18 05:26:00;;;;;;;4.47;0.85;;;9.90;99.90;;;;;;5030222;28;20387;-82
2022/09/18 05:28:27;;;;;;;2.78;0.60;;;9.90;99.90;;;;;;5035800;28;20100;-83
2022/09/18 05:31:00;;;;;;;3.22;0.75;;;9.90;99.90;;;;;;5055100;28;20103;-83
2022/09/18 05:33:27;;;;;;;5.93;0.90;;;9.90;99.90;;;;;;5047375;28;20045;-83
2022/09/18 05:35:55;;;;;;;3.42;0.77;;;10.00;99.90;;;;;;5037556;28;20042;-82
2022/09/18 05:38:22;;;;;;;4.28;0.60;;;10.00;99.90;;;;;;5030372;28;20041;-82
2022/09/18 05:40:49;;;;;;;5.45;1.10;;;10.00;99.90;;;;;;5013538;28;20052;-82
2022/09/18 05:43:16;;;;;;;1.75;0.45;;;10.00;99.90;;;;;;5021549;28;20116;-83
2022/09/18 05:45:43;;;;;;;3.63;0.70;;;10.00;99.90;;;;;;5029863;28;20126;-83
2022/09/18 05:48:13;;;;;;;3.10;0.45;;;10.00;99.90;;;;;;5046352;28;20132;-82
2022/09/18 05:50:41;;;;;;;2.42;0.65;;;10.00;99.90;;;;;;5030081;28;20041;-82
2022/09/18 05:53:14;;;;;;;4.35;0.65;;;10.10;99.90;;;;;;5046306;28;20042;-82
2022/09/18 05:55:41;;;;;;;2.75;1.00;;;10.10;99.90;;;;;;5046087;28;20049;-83
2022/09/18 05:58:15;;;;;;;5.70;1.23;;;10.10;99.90;;;;;;5023457;28;20045;-82
2022/09/18 06:00:45;;;;;;;2.17;0.70;;;10.10;99.90;;;;;;5030175;28;20041;-82
2022/09/18 06:03:14;;;;;;;1.77;0.70;;;10.00;99.90;;;;;;5029987;28;20045;-82
2022/09/18 06:05:42;;;;;;;4.15;0.88;;;10.00;99.90;;;;;;5029986;28;20576;-82
2022/09/18 06:08:10;;;;;;;3.50;1.08;;;10.00;99.90;;;;;;5029691;28;20711;-82
2022/09/18 06:10:39;;;;;;;4.60;0.90;;;10.00;99.90;;;;;;5046233;28;20038;-82
2022/09/18 06:13:08;;;;;;;3.28;0.93;;;10.00;99.90;;;;;;5029300;28;20576;-82
2022/09/18 06:15:35;;;;;;;3.22;0.55;;;9.90;99.90;;;;;;5046173;28;20092;-82
2022/09/18 06:18:03;;;;;;;2.15;0.50;;;9.90;99.90;;;;;;5029605;28;20040;-82
2022/09/18 06:20:29;;;;;;;1.70;0.50;;;9.90;99.90;;;;;;4997399;28;20145;-82
2022/09/18 06:23:00;;;;;;;1.33;0.50;;;10.00;99.90;;;;;;5013346;28;20132;-82
2022/09/18 06:25:30;;;;;;;1.85;0.50;;;9.90;99.90;;;;;;5013377;28;20103;-82
2022/09/18 06:27:59;;;;;;;4.22;1.33;;;9.90;99.90;;;;;;5049534;28;20038;-83
2022/09/18 06:30:28;;;;;;;3.53;0.60;;;9.90;99.90;;;;;;5048213;28;20034;-83
2022/09/18 06:32:55;;;;;;;4.22;0.60;;;9.90;99.90;;;;;;5041468;28;20042;-84
2022/09/18 06:35:22;;;;;;;4.13;0.82;;;9.90;99.90;;;;;;5031970;28;20042;-84
2022/09/18 06:37:49;;;;;;;2.40;0.60;;;9.90;99.90;;;;;;5038516;28;20680;-84
2022/09/18 06:40:16;;;;;;;2.80;0.40;;;9.90;99.90;;;;;;5032814;28;20042;-83
2022/09/18 06:42:42;;;;;;;3.88;0.50;;;9.90;99.90;;;;;;5049505;28;20402;-83
2022/09/18 06:45:09;;;;;;;2.08;0.50;;;10.00;99.90;;;;;;5048200;28;20195;-83
2022/09/18 06:47:37;;;;;;;2.28;0.50;;;10.00;99.90;;;;;;5049088;28;20375;-82
2022/09/18 06:50:05;;;;;;;4.22;0.50;;;10.20;99.90;;;;;;5048913;28;20041;-82
2022/09/18 06:52:32;;;;;;;1.67;0.47;;;10.00;99.90;;;;;;5035231;28;20037;-83
2022/09/18 06:54:58;;;;;;;5.03;0.80;;;10.00;99.90;;;;;;5053318;28;20375;-83
2022/09/18 06:57:25;;;;;;;2.42;0.65;;;10.00;99.90;;;;;;5036665;28;20037;-83
2022/09/18 06:59:52;;;;;;;2.75;0.70;;;10.00;99.90;;;;;;5036947;28;20080;-83
2022/09/18 07:02:18;;;;;;;1.27;0.50;;;10.00;99.90;;;;;;5026038;28;20092;-83
2022/09/18 07:04:45;;;;;;;1.45;0.68;;;10.00;99.90;;;;;;5026533;28;20037;-83
2022/09/18 07:07:12;;;;;;;4.70;0.70;;;10.00;99.90;;;;;;5036263;28;20095;-82
2022/09/18 07:09:39;;;;;;;1.98;0.50;;;10.00;99.90;;;;;;5042822;28;20049;-83
2022/09/18 07:12:06;;;;;;;1.65;0.45;;;10.00;99.90;;;;;;5052421;28;20577;-83
2022/09/18 07:14:32;;;;;;;3.92;0.63;;;10.00;99.90;;;;;;5048841;28;20049;-83
2022/09/18 07:16:59;;;;;;;2.13;0.60;;;10.00;99.90;;;;;;5036407;28;20091;-83
2022/09/18 07:19:26;;;;;;;2.35;0.98;;;10.00;99.90;;;;;;5052239;28;20073;-83
2022/09/18 07:21:52;;;;;;;4.18;0.65;;;9.90;99.90;;;;;;5052832;28;20041;-82
2022/09/18 07:24:19;;;;;;;3.72;0.52;;;9.90;99.90;;;;;;5052375;28;20052;-82
2022/09/18 07:26:46;;;;;;;1.25;0.30;;;10.00;99.90;;;;;;5035436;28;20091;-83
2022/09/18 07:29:12;;;;;;;4.75;0.80;;;10.00;99.90;;;;;;5019544;28;20045;-83
2022/09/18 07:31:39;;;;;;;2.80;0.43;;;10.00;99.90;;;;;;5015631;28;20041;-83
2022/09/18 07:34:07;;;;;;;2.72;0.60;;;10.00;99.90;;;;;;5035825;28;20048;-83
2022/09/18 07:36:34;;;;;;;4.10;0.80;;;10.00;99.90;;;;;;5032578;28;20049;-83
2022/09/18 07:39:03;;;;;;;6.25;0.60;;;10.00;99.90;;;;;;5035931;28;20041;-86
2022/09/18 07:41:30;;;;;;;1.98;0.60;;;10.00;99.90;;;;;;5052137;28;20045;-82
2022/09/18 07:43:57;;;;;;;3.95;0.82;;;10.40;99.90;;;;;;5052521;28;20045;-83
2022/09/18 07:46:24;;;;;;;4.65;0.57;;;10.10;99.90;;;;;;5035135;28;20050;-83
2022/09/18 07:48:50;;;;;;;6.05;0.60;;;10.10;99.90;;;;;;5052403;28;20033;-83
2022/09/18 07:51:17;;;;;;;1.27;0.50;;;10.20;99.90;;;;;;5035381;28;20033;-83
2022/09/18 07:53:46;;;;;;;2.33;0.50;;;10.20;99.90;;;;;;5028680;28;20068;-83
2022/09/18 07:56:12;;;;;;;5.47;0.60;;;10.20;99.90;;;;;;5068116;28;20044;-83
2022/09/18 07:58:39;;;;;;;3.55;0.70;;;10.20;99.90;;;;;;5031857;28;20033;-83
2022/09/18 08:01:06;;;;;;;4.82;0.60;;;10.30;99.90;;;;;;5032359;28;20086;-83
2022/09/18 08:03:34;;;;;;;4.57;0.70;;;10.20;99.90;;;;;;5034376;28;20041;-83
2022/09/18 08:06:01;;;;;;;1.20;0.50;;;10.30;99.90;;;;;;5052241;28;20041;-84
2022/09/18 08:08:28;;;;;;;3.38;0.80;;;10.30;99.90;;;;;;5032594;28;20045;-85
2022/09/18 08:10:57;;;;;;;5.45;0.63;;;10.30;99.90;;;;;;5016608;28;20125;-83
2022/09/18 08:13:24;;;;;;;1.65;0.50;;;10.40;99.90;;;;;;5015177;28;20568;-82
2022/09/18 08:15:50;;;;;;;7.22;0.70;;;10.40;99.90;;;;;;5031928;28;20121;-83
2022/09/18 08:18:20;;;;;;;1.25;0.43;;;10.40;99.90;;;;;;5038806;28;20037;-82
2022/09/18 08:20:46;;;;;;;1.98;0.45;;;10.40;99.90;;;;;;5083828;28;20053;-83
2022/09/18 08:23:13;;;;;;;2.22;0.65;;;10.40;99.90;;;;;;5035343;28;20485;-83
2022/09/18 08:25:41;;;;;;;3.00;1.02;;;10.40;99.90;;;;;;5035292;28;20038;-82
2022/09/18 08:28:08;;;;;;;1.63;0.52;;;10.40;99.90;;;;;;5017789;28;20041;-83
2022/09/18 08:30:35;;;;;;;3.33;0.60;;;10.40;99.90;;;;;;5035209;28;20033;-89
2022/09/18 08:33:05;;;;;;;3.75;0.50;;;10.40;99.90;;;;;;5051569;28;20079;-82
2022/09/18 08:35:32;;;;;;;3.05;0.75;;;10.40;99.90;;;;;;5051316;28;20038;-82
2022/09/18 08:37:59;;;;;;;8.02;0.93;;;10.60;99.90;;;;;;5035120;28;20123;-82
2022/09/18 08:40:41;;;;;;;1.83;0.85;;;10.40;99.90;;;;;;5080344;28;20064;-84
2022/09/18 08:43:19;;;;;;;1.95;0.70;;;10.30;99.90;;;;;;5068089;28;20037;-82
2022/09/18 08:45:54;;;;;;;2.72;0.50;;;10.30;99.90;;;;;;5048890;28;20056;-86
2022/09/18 08:48:30;;;;;;;3.13;0.75;;;10.20;99.90;;;;;;5077508;28;20084;-87
2022/09/18 08:51:16;;;;;;;2.28;0.30;;;10.30;99.90;;;;;;5082818;28;20444;-87
2022/09/18 08:53:47;;;;;;;4.28;0.60;;;10.20;99.90;;;;;;5066887;28;20129;-88
2022/09/18 08:56:20;;;;;;;3.33;0.70;;;10.20;99.90;;;;;;5077867;28;20045;-82
2022/09/18 08:58:57;;;;;;;0.82;0.38;;;10.30;99.90;;;;;;5067401;28;20069;-86
2022/09/18 09:01:49;;;;;;;6.10;0.75;;;10.40;99.90;;;;;;5046027;28;20049;-86
2022/09/18 09:04:21;;;;;;;3.33;0.82;;;10.40;99.90;;;;;;5009208;28;20060;-88
2022/09/18 09:07:03;;;;;;;5.13;0.77;;;10.50;99.90;;;;;;5046092;28;20048;-87
2022/09/18 09:09:39;;;;;;;3.22;0.63;;;10.50;99.90;;;;;;5050543;28;20052;-83
2022/09/18 09:12:09;;;;;;;;;;;10.50;99.90;;;;;;5047552;28;20885;-83
2022/09/18 09:14:41;;;;;;;3.33;0.60;;;10.50;99.90;;;;;;5063643;28;20443;-82
2022/09/18 09:17:44;;;;;;;2.75;0.90;;;10.50;99.90;;;;;;5049970;28;20099;-81
2022/09/18 09:20:22;;;;;;;2.58;1.20;;;10.60;99.90;;;;;;5051670;28;20448;-82
2022/09/18 09:23:03;;;;;;;4.90;0.80;;;10.60;99.90;;;;;;5049142;28;20052;-84
2022/09/18 09:25:48;;;;;;;2.40;0.50;;;10.60;99.90;;;;;;5082903;28;20045;-82
2022/09/18 09:28:23;;;;;;;1.63;0.30;;;10.60;99.90;;;;;;5049490;28;20080;-81
2022/09/18 09:30:58;;;;;;;2.63;0.68;;;10.60;99.90;;;;;;5030444;28;20072;-81
2022/09/18 09:33:58;;;;;;;5.82;0.55;;;10.70;99.90;;;;;;5029483;28;20056;-83
2022/09/18 09:36:28;;;;;;;4.65;0.70;;;10.70;99.90;;;;;;5053846;28;20684;-81
2022/09/18 09:39:22;;;;;;;1.65;0.50;;;10.80;99.90;;;;;;5039567;28;20034;-84
2022/09/18 09:42:24;;;;;;;2.47;0.50;;;10.80;99.90;;;;;;5040867;28;20134;-83
2022/09/18 09:45:00;;;;;;;3.40;0.70;;;10.80;99.90;;;;;;5041306;28;20103;-83
2022/09/18 09:47:42;;;;;;;1.45;0.50;;;10.90;99.90;;;;;;5066747;28;20133;-82
2022/09/18 09:50:22;;;;;;;2.97;0.70;;;10.90;99.90;;;;;;5048084;28;20041;-82
2022/09/18 09:52:55;;;;;;;4.35;0.60;;;11.00;99.90;;;;;;5049066;28;20037;-83
2022/09/18 09:55:39;;;;;;;0.77;0.43;;;11.00;99.90;;;;;;5059105;28;20116;-83
2022/09/18 09:58:31;;;;;;;5.15;0.88;;;11.00;99.90;;;;;;5048530;28;20041;-83
2022/09/18 10:01:14;;;;;;;6.53;0.70;;;11.00;99.90;;;;;;5065970;28;20037;-83
2022/09/18 10:03:54;;;;;;;7.82;1.00;;;11.00;99.90;;;;;;5065692;28;20049;-83
2022/09/18 10:06:33;;;;;;;4.22;0.90;;;11.00;99.90;;;;;;5065015;28;20486;-83
2022/09/18 10:09:19;;;;;;;5.10;0.80;;;11.00;99.90;;;;;;5075165;28;20062;-83
2022/09/18 10:11:56;;;;;;;4.20;0.93;;;11.10;99.90;;;;;;5029360;28;20041;-83
2022/09/18 10:14:26;;;;;;;2.90;0.98;;;11.20;99.90;;;;;;5053862;28;20095;-83
2022/09/18 10:16:55;;;;;;;3.10;0.60;;;11.20;99.90;;;;;;5049187;28;20041;-83
2022/09/18 10:19:32;;;;;;;3.90;0.70;;;11.30;99.90;;;;;;5045427;28;20045;-83
2022/09/18 10:22:04;;;;;;;3.88;1.05;;;11.30;99.90;;;;;;5045563;28;20494;-84
2022/09/18 10:25:00;;;;;;;2.90;0.70;;;11.40;99.90;;;;;;5032615;28;20573;-83
2022/09/18 10:27:26;;;;;;;1.33;0.55;;;11.30;99.90;;;;;;5081544;28;20049;-83
2022/09/18 10:29:53;;;;;;;3.53;0.60;;;11.40;99.90;;;;;;5016256;28;20083;-83
2022/09/18 10:32:35;;;;;;;8.38;0.73;;;11.50;99.90;;;;;;5079521;28;20045;-82
2022/09/18 10:35:27;;;;;;;3.88;0.98;;;11.60;99.90;;;;;;5067237;28;20374;-83
2022/09/18 10:37:54;;;;;;;5.90;0.90;;;11.60;99.90;;;;;;5064972;28;20489;-82
2022/09/18 10:40:36;;;;;;;3.35;0.70;;;11.60;99.90;;;;;;5048473;28;20051;-82
2022/09/18 10:43:03;;;;;;;2.67;0.65;;;11.60;99.90;;;;;;5049020;28;20512;-81
2022/09/18 10:45:36;;;;;;;1.40;0.60;;;11.70;99.90;;;;;;5076477;28;20490;-81
2022/09/18 10:48:22;;;;;;;3.10;0.73;;;11.80;99.90;;;;;;5068502;28;20120;-82
2022/09/18 10:51:00;;;;;;;3.40;0.60;;;11.90;99.90;;;;;;5045412;28;20544;-82
2022/09/18 10:53:37;;;;;;;3.67;0.75;;;11.90;99.90;;;;;;5031251;28;20069;-82
2022/09/18 10:56:16;;;;;;;3.38;0.60;;;12.00;99.90;;;;;;5046703;28;20620;-82
2022/09/18 10:58:43;;;;;;;1.90;0.63;;;12.00;99.90;;;;;;5044510;28;20049;-83
2022/09/18 11:01:12;;;;;;;1.67;0.77;;;12.00;99.90;;;;;;5018167;28;20524;-82
2022/09/18 11:03:58;;;;;;;3.67;0.60;;;12.00;99.90;;;;;;5069127;28;20045;-82
2022/09/18 11:06:26;;;;;;;;;;;12.00;99.90;;;;;;5037046;28;20440;-82
2022/09/18 11:08:58;;;;;;;5.65;0.70;;;12.10;99.90;;;;;;5053361;28;19928;-82
2022/09/18 11:11:27;;;;;;;1.17;0.45;;;12.10;99.90;;;;;;5044079;28;20050;-83
2022/09/18 11:14:07;;;;;;;2.55;0.73;;;12.20;99.90;;;;;;5042954;28;20060;-82
2022/09/18 11:16:38;;;;;;;7.20;0.90;;;12.20;99.90;;;;;;5034230;28;20034;-83
2022/09/18 11:19:14;;;;;;;3.97;0.68;;;12.20;99.90;;;;;;5046880;28;20051;-83
2022/09/18 11:21:47;;;;;;;7.00;0.95;;;12.30;99.90;;;;;;5048452;28;20049;-83
2022/09/18 11:24:26;;;;;;;2.10;0.60;;;12.30;99.90;;;;;;5039636;28;20037;-83
2022/09/18 11:26:56;;;;;;;2.05;0.80;;;12.30;99.90;;;;;;5039493;28;20413;-83
2022/09/18 11:29:30;;;;;;;3.70;0.70;;;12.40;99.90;;;;;;5046451;28;20054;-83
2022/09/18 11:32:26;;;;;;;6.55;0.90;;;12.40;99.90;;;;;;5045808;28;20034;-83
2022/09/18 11:34:56;;;;;;;6.13;1.00;;;12.40;99.90;;;;;;5034730;28;20041;-83
2022/09/18 11:37:36;;;;;;;4.45;1.23;;;12.50;99.90;;;;;;5047099;28;20399;-83
2022/09/18 11:40:07;;;;;;;3.30;0.85;;;12.60;99.90;;;;;;5036467;28;20038;-83
2022/09/18 11:42:43;;;;;;;3.38;0.75;;;12.60;99.90;;;;;;5035323;28;20033;-83
2022/09/18 11:45:36;;;;;;;6.60;0.95;;;12.70;99.90;;;;;;5046852;28;20038;-83
2022/09/18 11:48:35;;;;;;;4.68;0.80;;;12.80;99.90;;;;;;5032416;28;20044;-83
2022/09/18 11:51:09;;;;;;;6.18;1.08;;;12.80;99.90;;;;;;5032937;28;20042;-83
2022/09/18 11:53:44;;;;;;;3.63;0.80;;;12.90;99.90;;;;;;5056323;28;20084;-83
2022/09/18 11:56:39;;;;;;;3.20;0.82;;;12.80;99.90;;;;;;5063567;28;20034;-83
2022/09/18 11:59:22;;;;;;;1.85;0.70;;;12.70;99.90;;;;;;5052055;28;20521;-83
2022/09/18 12:01:55;;;;;;;6.03;0.60;;;12.70;99.90;;;;;;5040686;28;20045;-83
2022/09/18 12:04:45;;;;;;;2.35;0.73;;;12.70;99.90;;;;;;5046055;28;20041;-83
2022/09/18 12:07:43;;;;;;;3.40;0.65;;;12.70;99.90;;;;;;5049704;28;20041;-82
2022/09/18 12:10:48;;;;;;;3.05;0.70;;;12.90;99.90;;;;;;5056717;28;20045;-83
2022/09/18 12:13:45;;;;;;;1.50;0.47;;;13.00;99.90;;;;;;5025659;28;20122;-83
2022/09/18 12:16:46;;;;;;;4.93;0.98;;;13.20;99.90;;;;;;5059845;28;20065;-83
2022/09/18 12:19:36;;;;;;;1.67;0.30;;;13.40;99.90;;;;;;5051012;28;20033;-83
2022/09/18 12:22:30;;;;;;;3.10;0.38;;;13.60;99.90;;;;;;5050865;28;20085;-83
2022/09/18 12:24:58;;;;;;;3.90;0.70;;;13.90;99.90;;;;;;5068477;28;20597;-83
2022/09/18 12:27:46;;;;;;;4.20;0.70;;;13.90;99.90;;;;;;5051239;28;20049;-83
2022/09/18 12:30:21;;;;;;;4.50;0.90;;;13.90;99.90;;;;;;5051632;28;20041;-83
2022/09/18 12:33:04;;;;;;;5.25;0.70;;;13.80;99.90;;;;;;5051152;28;20692;-82
2022/09/18 12:35:55;;;;;;;2.55;0.68;;;13.70;99.90;;;;;;5051318;28;20069;-82
2022/09/18 12:38:34;;;;;;;2.75;0.70;;;13.80;99.90;;;;;;5051332;28;20456;-83
2022/09/18 12:41:13;;;;;;;3.50;0.70;;;13.90;99.90;;;;;;5047591;28;20492;-83
2022/09/18 12:43:58;;;;;;;2.53;0.65;;;13.80;99.90;;;;;;5031314;28;20111;-83
2022/09/18 12:46:34;;;;;;;3.95;0.63;;;13.80;99.90;;;;;;5050913;28;20452;-83
2022/09/18 12:49:06;;;;;;;;;;;13.80;99.90;;;;;;5051022;28;20092;-83
2022/09/18 12:51:48;;;;;;;2.88;0.57;;;13.80;99.90;;;;;;5053022;28;19995;-83
2022/09/18 12:54:27;;;;;;;6.72;0.60;;;13.80;99.90;;;;;;5039165;28;20519;-83
2022/09/18 12:57:05;;;;;;;3.17;0.70;;;13.90;99.90;;;;;;5042612;28;20105;-82
2022/09/18 12:59:31;;;;;;;4.22;0.57;;;13.80;99.90;;;;;;5047805;28;20489;-83
2022/09/18 13:02:21;;;;;;;3.58;0.52;;;13.90;99.90;;;;;;5049924;28;20045;-82
2022/09/18 13:04:58;;;;;;;4.93;0.70;;;13.90;99.90;;;;;;5066764;28;20080;-83
2022/09/18 13:07:39;;;;;;;4.78;0.82;;;13.90;99.90;;;;;;5057330;28;20516;-83
2022/09/18 13:10:18;;;;;;;7.43;0.80;;;13.90;99.90;;;;;;5062236;28;20091;-82
2022/09/18 13:13:10;;;;;;;3.95;0.63;;;13.90;99.90;;;;;;5066657;28;20587;-83
2022/09/18 13:15:43;;;;;;;8.30;1.40;;;13.80;99.90;;;;;;5050185;28;20041;-82
2022/09/18 13:18:34;;;;;;;3.03;0.55;;;13.70;99.90;;;;;;5078685;28;20454;-82
2022/09/18 13:21:05;;;;;;;5.75;0.80;;;13.70;99.90;;;;;;5048953;28;20045;-83
2022/09/18 13:23:37;;;;;;;10.45;1.10;;;13.60;99.90;;;;;;5049713;28;20045;-83
2022/09/18 13:26:08;;;;;;;6.95;0.85;;;13.50;99.90;;;;;;5062327;28;20045;-84